Time;durP1;ratioP1;P1;durP2;ratioP2;P2;SDS_P1;SDS_P2;PMS_P1;PMS_P2;Temp;Humidity;BMP_temperature;BMP_pressure;BME280_temperature;BME280_humidity;BME280_pressure;Samples;Min_cycle;Max_cycle;Signal;HPM_P1;HPM_P2
2023/12/04 00:00:07;;;;;;;35.88;24.02;;;;;;;-5.02;100.00;96085.38;5025884;28;20054;-66
2023/12/04 00:02:32;;;;;;;35.55;24.95;;;;;;;-4.94;100.00;96080.91;5015323;28;20032;-66
2023/12/04 00:04:57;;;;;;;34.85;23.75;;;;;;;-4.92;100.00;96084.28;5017806;28;20030;-67
2023/12/04 00:07:23;;;;;;;33.92;23.63;;;;;;;-4.92;100.00;96081.72;5022321;28;20039;-66
2023/12/04 00:09:48;;;;;;;37.40;25.42;;;;;;;-4.93;100.00;96077.47;5031449;28;20471;-67
2023/12/04 00:12:14;;;;;;;39.95;27.88;;;;;;;-4.90;100.00;96077.38;5017065;28;20033;-67
2023/12/04 00:14:39;;;;;;;36.88;22.27;;;;;;;-4.90;100.00;96077.38;5020160;28;20125;-67
2023/12/04 00:17:04;;;;;;;23.05;16.27;;;;;;;-4.91;100.00;96067.13;5014557;28;20056;-67
2023/12/04 00:19:30;;;;;;;22.20;16.80;;;;;;;-4.90;100.00;96068.81;5026399;28;20026;-66
2023/12/04 00:21:55;;;;;;;19.77;14.85;;;;;;;-4.90;100.00;96063.69;5028326;28;20052;-66
2023/12/04 00:24:21;;;;;;;21.48;14.20;;;;;;;-4.88;100.00;96061.91;5023252;28;20044;-67
2023/12/04 00:26:46;;;;;;;36.97;22.77;;;;;;;-4.94;100.00;96051.81;5016570;28;20275;-67
2023/12/04 00:29:11;;;;;;;40.05;26.13;;;;;;;-4.89;100.00;96040.53;5015407;28;20555;-67
2023/12/04 00:31:37;;;;;;;34.70;22.77;;;;;;;-4.86;100.00;96033.63;5025496;28;20034;-67
2023/12/04 00:34:02;;;;;;;35.83;23.10;;;;;;;-4.84;100.00;96030.16;5024768;28;20083;-67
2023/12/04 00:36:28;;;;;;;28.33;19.90;;;;;;;-4.85;100.00;96019.91;5018417;28;20525;-67
2023/12/04 00:38:53;;;;;;;24.85;16.55;;;;;;;-4.89;100.00;96017.41;5019076;28;20194;-66
2023/12/04 00:41:18;;;;;;;23.58;17.35;;;;;;;-4.82;100.00;96007.84;5021920;28;20033;-66
2023/12/04 00:43:44;;;;;;;31.05;20.23;;;;;;;-4.80;100.00;96010.34;5029581;28;20124;-66
2023/12/04 00:46:09;;;;;;;32.35;23.15;;;;;;;-4.74;100.00;95999.91;5024266;28;20024;-67
2023/12/04 00:48:34;;;;;;;31.58;22.85;;;;;;;-4.76;100.00;95996.53;5027439;28;20097;-66
2023/12/04 00:51:00;;;;;;;31.58;19.77;;;;;;;-4.72;100.00;95995.59;5024396;28;20024;-66
2023/12/04 00:53:25;;;;;;;35.20;23.55;;;;;;;-4.73;100.00;96001.59;5018586;28;20038;-67
2023/12/04 00:55:50;;;;;;;43.33;29.02;;;;;;;-4.74;100.00;95994.78;5021301;28;20386;-67
2023/12/04 00:58:16;;;;;;;35.15;24.73;;;;;;;-4.67;100.00;95995.44;5035888;28;20510;-67
2023/12/04 01:00:41;;;;;;;37.55;25.88;;;;;;;-4.62;100.00;95986.72;5031721;28;20021;-66
2023/12/04 01:03:07;;;;;;;31.55;22.92;;;;;;;-4.62;100.00;95981.59;5024963;28;20056;-66
2023/12/04 01:05:32;;;;;;;33.80;24.50;;;;;;;-4.68;100.00;95973.19;5019393;28;20033;-67
2023/12/04 01:07:57;;;;;;;39.47;26.08;;;;;;;-4.68;100.00;95970.63;5019166;28;20182;-67
2023/12/04 01:10:23;;;;;;;62.50;36.10;;;;;;;-4.69;100.00;95968.94;5020346;28;21268;-66
2023/12/04 01:12:48;;;;;;;28.08;19.45;;;;;;;-4.69;100.00;95968.94;5016165;28;20060;-67
2023/12/04 01:15:14;;;;;;;24.52;18.23;;;;;;;-4.64;100.00;95959.41;5025147;28;20033;-67
2023/12/04 01:17:39;;;;;;;22.92;17.40;;;;;;;-4.52;100.00;95963.34;5024506;28;20104;-66
2023/12/04 01:20:05;;;;;;;23.17;18.73;;;;;;;-4.43;100.00;95967.38;5019673;28;20087;-67
2023/12/04 01:22:30;;;;;;;26.02;18.27;;;;;;;-4.41;100.00;95961.31;5036774;28;20037;-66
2023/12/04 01:24:56;;;;;;;32.95;20.77;;;;;;;-4.35;100.00;95973.97;5015667;28;20506;-67
2023/12/04 01:27:21;;;;;;;29.00;18.95;;;;;;;-4.30;100.00;95965.31;5014079;28;20771;-67
2023/12/04 01:29:46;;;;;;;26.30;20.13;;;;;;;-4.30;100.00;95973.84;5012341;28;20450;-67
2023/12/04 01:32:12;;;;;;;34.00;23.02;;;;;;;-4.34;100.00;95975.66;5023780;28;20029;-66
2023/12/04 01:34:37;;;;;;;34.58;21.40;;;;;;;-4.32;100.00;95971.31;5015938;28;20111;-67
2023/12/04 01:37:03;;;;;;;30.45;18.33;;;;;;;-4.26;100.00;95972.03;5024164;28;20044;-67
2023/12/04 01:39:28;;;;;;;26.65;18.20;;;;;;;-4.17;100.00;95975.19;5017654;28;20116;-67
2023/12/04 01:41:53;;;;;;;43.67;23.60;;;;;;;-4.13;100.00;95965.63;5019262;28;20113;-67
2023/12/04 01:44:19;;;;;;;88.55;41.85;;;;;;;-4.14;100.00;95958.81;5019636;28;20429;-66
2023/12/04 01:46:45;;;;;;;25.92;18.30;;;;;;;-4.14;100.00;95958.81;5014065;28;20030;-66
2023/12/04 01:49:10;;;;;;;31.40;20.10;;;;;;;-4.08;100.00;95947.50;5024036;28;20025;-67
2023/12/04 01:51:36;;;;;;;31.45;19.95;;;;;;;-4.05;100.00;95947.41;5017435;28;20021;-66
2023/12/04 01:54:04;;;;;;;35.72;23.15;;;;;;;-4.04;100.00;95939.66;5029476;28;20033;-66
2023/12/04 01:56:30;;;;;;;26.77;18.75;;;;;;;-3.99;100.00;95934.34;5019136;28;20037;-66
2023/12/04 01:58:55;;;;;;;27.75;18.08;;;;;;;-3.96;100.00;95931.72;5015995;28;20030;-67
2023/12/04 02:01:23;;;;;;;27.92;17.20;;;;;;;-3.89;100.00;95922.03;5022324;28;20026;-67
2023/12/04 02:03:48;;;;;;;32.53;20.55;;;;;;;-3.84;100.00;95922.75;5021861;28;20040;-66
2023/12/04 02:06:16;;;;;;;41.55;27.75;;;;;;;-3.82;100.00;95928.69;5034511;28;20021;-67
2023/12/04 02:08:42;;;;;;;35.63;21.70;;;;;;;-3.82;100.00;95922.69;5025438;28;20017;-66
2023/12/04 02:11:08;;;;;;;30.42;19.85;;;;;;;-3.84;100.00;95919.34;5028053;28;20040;-67
2023/12/04 02:13:33;;;;;;;37.92;23.00;;;;;;;-3.81;100.00;95930.38;5020081;28;20119;-66
2023/12/04 02:16:06;;;;;;;19.50;14.55;;;;;;;-3.71;100.00;95924.94;5023761;28;20037;-67
2023/12/04 02:18:32;;;;;;;25.33;16.42;;;;;;;-3.51;100.00;95932.84;5031309;28;20533;-66
2023/12/04 02:20:57;;;;;;;25.27;16.30;;;;;;;-3.64;100.00;95937.56;5036125;28;20070;-66
2023/12/04 02:23:23;;;;;;;26.23;16.05;;;;;;;-3.65;100.00;95935.03;5015181;28;20116;-67
2023/12/04 02:25:51;;;;;;;31.45;16.20;;;;;;;-3.68;100.00;95928.25;5018696;28;20143;-67
2023/12/04 02:28:17;;;;;;;28.45;16.15;;;;;;;-3.62;100.00;95919.50;5024592;28;20037;-67
2023/12/04 02:30:44;;;;;;;26.13;17.02;;;;;;;-3.66;100.00;95912.75;5033484;28;20037;-66
2023/12/04 02:33:13;;;;;;;41.80;25.98;;;;;;;-3.67;100.00;95901.63;5023153;28;20029;-67
2023/12/04 02:35:40;;;;;;;31.30;20.10;;;;;;;-3.59;100.00;95896.22;5033847;28;20021;-67
2023/12/04 02:38:06;;;;;;;36.47;22.13;;;;;;;-3.55;100.00;95878.94;5029260;28;20033;-66
2023/12/04 02:40:32;;;;;;;31.00;18.98;;;;;;;-3.51;100.00;95872.81;5035383;28;20027;-67
2023/12/04 02:42:57;;;;;;;27.27;18.20;;;;;;;-3.46;100.00;95860.63;5035525;28;20096;-66
2023/12/04 02:45:23;;;;;;;22.90;12.60;;;;;;;-3.50;100.00;95859.88;5036437;28;20033;-66
2023/12/04 02:47:48;;;;;;;24.50;17.02;;;;;;;-3.48;100.00;95849.53;5035008;28;20033;-66
2023/12/04 02:50:13;;;;;;;69.15;39.42;;;;;;;-3.40;100.00;95837.22;5018904;28;20029;-67
2023/12/04 02:52:39;;;;;;;26.38;18.33;;;;;;;-3.40;100.00;95829.50;5018312;28;20057;-66
2023/12/04 02:55:05;;;;;;;12.15;8.82;;;;;;;-3.40;100.00;95833.84;5018948;28;20026;-67
2023/12/04 02:57:30;;;;;;;8.90;7.70;;;;;;;-3.40;100.00;95820.97;5035430;28;20029;-67
2023/12/04 02:59:57;;;;;;;8.73;7.82;;;;;;;-3.37;100.00;95818.28;5022010;28;20054;-66
2023/12/04 03:02:22;;;;;;;14.68;11.75;;;;;;;-3.36;100.00;95819.97;5017216;28;20441;-67
2023/12/04 03:04:47;;;;;;;12.68;10.57;;;;;;;-3.34;100.00;95803.53;5030024;28;20037;-67
2023/12/04 03:07:13;;;;;;;15.38;10.63;;;;;;;-3.27;100.00;95800.78;5016222;28;20108;-67
2023/12/04 03:09:38;;;;;;;15.60;12.63;;;;;;;-3.31;100.00;95800.03;5017694;28;20040;-67
2023/12/04 03:12:04;;;;;;;10.80;8.88;;;;;;;-3.28;100.00;95794.75;5023171;28;20072;-67
2023/12/04 03:14:29;;;;;;;11.15;8.13;;;;;;;-3.28;100.00;95797.34;5024142;28;20089;-67
2023/12/04 03:16:55;;;;;;;28.23;18.20;;;;;;;-3.05;100.00;95777.63;5034246;28;20060;-66
2023/12/04 03:19:20;;;;;;;19.83;12.32;;;;;;;-3.07;100.00;95792.31;5030054;28;20108;-66
2023/12/04 03:21:45;;;;;;;12.73;9.68;;;;;;;-3.11;100.00;95780.44;5027330;28;20025;-66
2023/12/04 03:24:11;;;;;;;41.20;18.02;;;;;;;-3.13;100.00;95793.38;5024093;28;20045;-66
2023/12/04 03:26:37;;;;;;;16.95;9.77;;;;;;;-3.16;100.00;95785.75;5023568;28;20033;-66
2023/12/04 03:29:02;;;;;;;23.00;14.10;;;;;;;-3.08;100.00;95782.91;5029651;28;20034;-66
2023/12/04 03:31:28;;;;;;;17.48;10.27;;;;;;;-3.11;100.00;95781.25;5017076;28;20022;-66
2023/12/04 03:33:53;;;;;;;15.13;9.85;;;;;;;-3.11;100.00;95785.59;5030894;28;20043;-66
2023/12/04 03:36:19;;;;;;;13.90;9.40;;;;;;;-3.09;100.00;95781.22;5035333;28;20033;-67
2023/12/04 03:38:44;;;;;;;7.80;7.00;;;;;;;-3.09;100.00;95797.53;5034080;28;20053;-66
2023/12/04 03:41:14;;;;;;;9.02;8.13;;;;;;;-3.06;100.00;95787.13;5036324;28;20063;-67
2023/12/04 03:43:40;;;;;;;9.30;7.88;;;;;;;-2.96;100.00;95779.03;5023932;28;20084;-66
2023/12/04 03:46:05;;;;;;;15.07;8.05;;;;;;;-3.00;100.00;95788.59;5017772;28;20030;-66
2023/12/04 03:48:31;;;;;;;10.90;7.80;;;;;;;-3.01;100.00;95789.50;5027413;28;20049;-66
2023/12/04 03:50:56;;;;;;;10.48;7.88;;;;;;;-3.00;100.00;95796.31;5016053;28;20040;-66
2023/12/04 03:53:21;;;;;;;9.05;7.57;;;;;;;-3.01;100.00;95784.34;5035824;28;20041;-66
2023/12/04 03:55:47;;;;;;;10.60;7.75;;;;;;;-3.01;100.00;95786.91;5035607;28;20083;-66
2023/12/04 03:58:12;;;;;;;14.43;9.15;;;;;;;-2.86;100.00;95775.22;5034943;28;20104;-66
2023/12/04 04:00:40;;;;;;;9.90;7.22;;;;;;;-2.95;100.00;95772.97;5036244;28;20159;-66
2023/12/04 04:03:06;;;;;;;11.40;8.52;;;;;;;-2.92;100.00;95780.59;5019493;28;20096;-66
2023/12/04 04:05:34;;;;;;;9.80;8.57;;;;;;;-2.88;100.00;95767.53;5030295;28;20068;-66
2023/12/04 04:07:59;;;;;;;8.40;7.45;;;;;;;-2.88;100.00;95784.72;5019751;28;20502;-66
2023/12/04 04:10:25;;;;;;;9.85;7.20;;;;;;;-2.87;100.00;95783.84;5016631;28;20148;-66
2023/12/04 04:12:50;;;;;;;10.55;7.47;;;;;;;-2.89;100.00;95783.91;5027968;28;20053;-66
2023/12/04 04:15:15;;;;;;;9.50;6.85;;;;;;;-2.92;100.00;95789.16;5025990;28;20036;-66
2023/12/04 04:17:41;;;;;;;9.05;7.30;;;;;;;-2.80;100.00;95774.97;5022003;28;20127;-67
2023/12/04 04:20:08;;;;;;;10.05;7.32;;;;;;;-2.86;100.00;95761.50;5022891;28;20034;-66
2023/12/04 04:22:37;;;;;;;10.65;7.68;;;;;;;-2.85;100.00;95765.75;5026051;28;20124;-67
2023/12/04 04:25:09;;;;;;;9.00;7.50;;;;;;;-2.86;100.00;95758.91;5027441;28;20029;-66
2023/12/04 04:27:35;;;;;;;8.05;7.22;;;;;;;-2.86;100.00;95746.88;5022484;28;20024;-66
2023/12/04 04:30:01;;;;;;;8.45;7.65;;;;;;;-2.84;100.00;95757.13;5035340;28;20061;-66
2023/12/04 04:32:26;;;;;;;13.73;7.68;;;;;;;-2.79;100.00;95756.03;5029177;28;20501;-66
2023/12/04 04:34:52;;;;;;;12.18;8.60;;;;;;;-2.70;100.00;95744.53;5025454;28;20018;-65
2023/12/04 04:37:17;;;;;;;9.50;7.20;;;;;;;-2.65;100.00;95736.66;5029177;28;20025;-66
2023/12/04 04:39:42;;;;;;;9.90;7.28;;;;;;;-2.57;100.00;95734.59;5016029;28;20057;-66
2023/12/04 04:42:08;;;;;;;12.15;7.97;;;;;;;-2.65;100.00;95731.50;5028627;28;20021;-66
2023/12/04 04:44:33;;;;;;;9.00;6.60;;;;;;;-2.66;100.00;95738.38;5015522;28;20037;-66
2023/12/04 04:46:59;;;;;;;7.90;6.50;;;;;;;-2.68;100.00;95734.16;5022250;28;20025;-66
2023/12/04 04:49:24;;;;;;;6.93;6.22;;;;;;;-2.66;100.00;95728.06;5023445;28;20071;-67
2023/12/04 04:51:50;;;;;;;7.97;6.28;;;;;;;-2.63;100.00;95734.84;5021282;28;20046;-67
2023/12/04 04:54:15;;;;;;;6.80;5.40;;;;;;;-2.61;100.00;95728.72;5021431;28;20123;-67
2023/12/04 04:56:40;;;;;;;7.22;6.30;;;;;;;-2.58;100.00;95717.44;5030694;28;20144;-66
2023/12/04 04:59:06;;;;;;;7.28;6.57;;;;;;;-2.56;100.00;95719.94;5023403;28;20478;-66
2023/12/04 05:01:31;;;;;;;6.13;5.53;;;;;;;-2.54;100.00;95724.16;5031674;28;20037;-66
2023/12/04 05:03:56;;;;;;;8.05;7.22;;;;;;;-2.53;100.00;95722.44;5023487;28;20030;-66
2023/12/04 05:06:22;;;;;;;8.05;6.78;;;;;;;-2.61;100.00;95722.72;5015267;28;20117;-66
2023/12/04 05:08:48;;;;;;;7.40;6.22;;;;;;;-2.62;100.00;95723.63;5030785;28;20040;-67
2023/12/04 05:11:16;;;;;;;7.75;6.97;;;;;;;-2.62;100.00;95721.88;5019504;28;20079;-67
2023/12/04 05:13:42;;;;;;;10.63;7.18;;;;;;;-2.53;100.00;95712.13;5032712;28;20567;-67
2023/12/04 05:16:08;;;;;;;7.07;6.38;;;;;;;-2.56;100.00;95713.06;5028865;28;20026;-67
2023/12/04 05:18:33;;;;;;;14.55;10.85;;;;;;;-2.49;100.00;95711.09;5033593;28;20109;-67
2023/12/04 05:20:59;;;;;;;11.40;8.50;;;;;;;-2.50;100.00;95720.53;5030492;28;20038;-67
2023/12/04 05:23:24;;;;;;;9.10;7.47;;;;;;;-2.54;100.00;95698.38;5033363;28;20029;-67
2023/12/04 05:25:50;;;;;;;7.35;6.60;;;;;;;-2.52;100.00;95690.59;5015723;28;20034;-67
2023/12/04 05:28:15;;;;;;;7.75;6.78;;;;;;;-2.49;100.00;95680.97;5025544;28;20458;-67
2023/12/04 05:30:40;;;;;;;6.63;6.03;;;;;;;-2.44;100.00;95670.47;5017038;28;20113;-67
2023/12/04 05:33:06;;;;;;;10.50;6.53;;;;;;;-2.47;100.00;95661.13;5019172;28;20033;-67
2023/12/04 05:35:34;;;;;;;8.27;7.43;;;;;;;-2.51;100.00;95666.47;5026358;28;20040;-67
2023/12/04 05:38:00;;;;;;;10.38;7.47;;;;;;;-2.48;100.00;95666.34;5027003;28;20030;-67
2023/12/04 05:40:25;;;;;;;10.85;9.95;;;;;;;-2.42;100.00;95673.81;5031083;28;20497;-67
2023/12/04 05:42:51;;;;;;;11.65;10.45;;;;;;;-2.38;100.00;95657.31;5019224;28;20018;-67
2023/12/04 05:45:16;;;;;;;13.48;10.95;;;;;;;-2.33;100.00;95664.88;5034811;28;20025;-67
2023/12/04 05:47:42;;;;;;;18.50;13.63;;;;;;;-2.35;100.00;95664.94;5031861;28;20100;-67
2023/12/04 05:50:07;;;;;;;13.45;12.07;;;;;;;-2.32;100.00;95666.56;5024808;28;20736;-67
2023/12/04 05:52:33;;;;;;;32.95;26.10;;;;;;;-2.35;100.00;95652.03;5037706;28;20049;-67
2023/12/04 05:54:58;;;;;;;9.35;8.07;;;;;;;-2.32;100.00;95662.25;5035461;28;20227;-67
2023/12/04 05:57:23;;;;;;;71.30;54.35;;;;;;;-2.23;100.00;95657.59;5038386;28;20104;-67
2023/12/04 05:59:49;;;;;;;20.23;15.60;;;;;;;-2.24;100.00;95664.47;5033759;28;20033;-67
2023/12/04 06:02:15;;;;;;;19.20;15.13;;;;;;;-2.23;100.00;95658.41;5028002;28;20382;-67
2023/12/04 06:04:40;;;;;;;21.23;18.13;;;;;;;-2.18;100.00;95663.38;5020941;28;20042;-67
2023/12/04 06:07:06;;;;;;;13.65;12.27;;;;;;;-2.12;100.00;95647.63;5027943;28;20026;-67
2023/12/04 06:09:32;;;;;;;8.23;7.35;;;;;;;-2.21;100.00;95663.53;5023792;28;20017;-67
2023/12/04 06:11:57;;;;;;;11.07;9.35;;;;;;;-2.29;100.00;95645.78;5027647;28;20108;-67
2023/12/04 06:14:23;;;;;;;9.32;8.43;;;;;;;-2.30;100.00;95644.09;5032326;28;20029;-67
2023/12/04 06:16:48;;;;;;;8.90;7.90;;;;;;;-2.34;100.00;95647.72;5026070;28;20037;-67
2023/12/04 06:19:14;;;;;;;10.00;8.48;;;;;;;-2.14;100.00;95651.22;5033120;28;20032;-67
2023/12/04 06:21:39;;;;;;;7.95;7.20;;;;;;;-2.16;100.00;95687.38;5032541;28;20025;-67
2023/12/04 06:24:05;;;;;;;9.43;8.40;;;;;;;-2.20;100.00;95694.44;5033119;28;20068;-68
2023/12/04 06:26:31;;;;;;;8.20;7.18;;;;;;;-2.22;100.00;95674.75;5036762;28;20029;-68
2023/12/04 06:28:57;;;;;;;18.05;13.23;;;;;;;-2.08;100.00;95667.28;5020857;28;20040;-68
2023/12/04 06:31:23;;;;;;;13.65;12.35;;;;;;;-1.98;100.00;95682.34;5029531;28;20511;-68
2023/12/04 06:33:49;;;;;;;15.55;13.15;;;;;;;-2.08;100.00;95682.75;5033102;28;20026;-68
2023/12/04 06:36:15;;;;;;;10.75;9.55;;;;;;;-1.96;100.00;95672.78;5037272;28;20501;-68
2023/12/04 06:38:41;;;;;;;8.48;7.68;;;;;;;-1.84;100.00;95669.69;5021053;28;20029;-68
2023/12/04 06:41:07;;;;;;;10.38;9.23;;;;;;;-1.94;100.00;95683.88;5024111;28;20037;-68
2023/12/04 06:43:33;;;;;;;10.23;9.18;;;;;;;-2.01;100.00;95672.97;5028083;28;20030;-68
2023/12/04 06:45:59;;;;;;;11.43;10.27;;;;;;;-1.99;100.00;95667.78;5028159;28;20026;-68
2023/12/04 06:48:24;;;;;;;16.40;13.05;;;;;;;-2.00;100.00;95666.09;5031792;28;20037;-71
2023/12/04 06:50:50;;;;;;;12.43;11.23;;;;;;;-1.98;100.00;95653.97;5032979;28;20053;-67
2023/12/04 06:53:15;;;;;;;16.52;12.95;;;;;;;-2.01;100.00;95636.84;5028247;28;20095;-68
2023/12/04 06:55:41;;;;;;;9.77;7.50;;;;;;;-1.94;100.00;95622.81;5035425;28;21164;-67
2023/12/04 06:58:06;;;;;;;8.75;7.63;;;;;;;-1.70;100.00;95606.28;5033594;28;20026;-69
2023/12/04 07:00:32;;;;;;;8.65;7.70;;;;;;;-1.66;100.00;95605.22;5017197;28;20041;-68
2023/12/04 07:02:57;;;;;;;9.82;8.65;;;;;;;-1.59;100.00;95599.72;5031310;28;20030;-70
2023/12/04 07:05:22;;;;;;;8.98;8.05;;;;;;;-1.62;100.00;95594.69;5027075;28;20538;-67
2023/12/04 07:07:48;;;;;;;9.55;5.85;;;;;;;-1.67;100.00;95591.50;5020604;28;20037;-67
2023/12/04 07:10:14;;;;;;;6.70;6.00;;;;;;;-1.62;100.00;95596.47;5017195;28;20069;-67
2023/12/04 07:12:41;;;;;;;12.25;7.57;;;;;;;-1.59;100.00;95607.47;5017437;28;20036;-68
2023/12/04 07:15:08;;;;;;;9.70;8.80;;;;;;;-1.53;100.00;95605.53;5026066;28;20029;-68
2023/12/04 07:17:34;;;;;;;12.73;10.93;;;;;;;-1.53;100.00;95602.97;5034645;28;20029;-66
2023/12/04 07:19:59;;;;;;;15.88;13.32;;;;;;;-1.47;100.00;95590.56;5034850;28;20029;-64
2023/12/04 07:22:25;;;;;;;9.73;8.68;;;;;;;-1.43;100.00;95583.53;5034468;28;20033;-66
2023/12/04 07:24:51;;;;;;;12.40;9.57;;;;;;;-1.43;100.00;95586.13;5021473;28;20021;-68
2023/12/04 07:27:16;;;;;;;13.27;10.50;;;;;;;-1.46;100.00;95594.00;5016687;28;20525;-69
2023/12/04 07:29:41;;;;;;;11.10;9.60;;;;;;;-1.43;100.00;95590.47;5017570;28;20026;-69
2023/12/04 07:32:07;;;;;;;12.52;11.20;;;;;;;-1.42;100.00;95594.72;5030143;28;20033;-69
2023/12/04 07:34:32;;;;;;;20.02;13.07;;;;;;;-1.32;100.00;95598.53;5028611;28;20082;-69
2023/12/04 07:36:58;;;;;;;12.00;9.70;;;;;;;-1.39;100.00;95605.72;5020380;28;20034;-70
2023/12/04 07:39:23;;;;;;;10.73;9.52;;;;;;;-1.43;100.00;95609.34;5001051;28;20037;-69
2023/12/04 07:41:48;;;;;;;11.80;9.65;;;;;;;-1.45;100.00;95609.41;5017479;28;20037;-69
2023/12/04 07:44:14;;;;;;;11.70;8.35;;;;;;;-1.44;100.00;95618.00;5032654;28;21720;-69
2023/12/04 07:46:39;;;;;;;13.18;11.55;;;;;;;-1.29;100.00;95606.13;5030196;28;20796;-70
2023/12/04 07:49:04;;;;;;;12.32;11.07;;;;;;;-1.27;100.00;95616.41;5025359;28;20055;-70
2023/12/04 07:51:30;;;;;;;14.65;11.43;;;;;;;-1.33;100.00;95618.38;5023653;28;20037;-70
2023/12/04 07:53:55;;;;;;;13.32;11.82;;;;;;;-1.31;100.00;95618.28;5017455;28;20513;-70
2023/12/04 07:56:21;;;;;;;32.17;25.55;;;;;;;-1.21;100.00;95614.38;5017311;28;20025;-70
2023/12/04 07:58:46;;;;;;;11.73;9.93;;;;;;;-1.26;100.00;95625.81;5030134;28;20051;-70
2023/12/04 08:01:11;;;;;;;9.85;8.80;;;;;;;-1.27;100.00;95619.81;5031297;28;20021;-71
2023/12/04 08:03:37;;;;;;;15.90;13.82;;;;;;;-1.19;100.00;95624.63;5017182;28;20064;-71
2023/12/04 08:06:03;;;;;;;18.38;14.40;;;;;;;-1.20;100.00;95621.22;5027511;28;20036;-71
2023/12/04 08:08:28;;;;;;;29.20;23.33;;;;;;;-1.16;100.00;95633.09;5021280;28;20033;-70
2023/12/04 08:10:54;;;;;;;25.92;23.23;;;;;;;-1.02;100.00;95616.06;5029484;28;20489;-71
2023/12/04 08:13:20;;;;;;;18.80;16.15;;;;;;;-1.09;100.00;95612.97;5020224;28;20058;-71
2023/12/04 08:15:45;;;;;;;21.05;18.88;;;;;;;-1.22;100.00;95623.00;5023674;28;20505;-71
2023/12/04 08:18:11;;;;;;;13.70;12.25;;;;;;;-1.24;100.00;95624.84;5019548;28;20049;-71
2023/12/04 08:20:36;;;;;;;23.63;19.27;;;;;;;-1.22;100.00;95627.34;5023498;28;20592;-71
2023/12/04 08:23:02;;;;;;;13.52;12.02;;;;;;;-1.24;100.00;95635.16;5027600;28;20022;-71
2023/12/04 08:25:28;;;;;;;15.95;14.05;;;;;;;-1.21;100.00;95640.22;5023432;28;20656;-71
2023/12/04 08:27:53;;;;;;;14.23;11.50;;;;;;;-1.20;100.00;95635.88;5014087;28;20136;-71
2023/12/04 08:30:19;;;;;;;12.20;10.32;;;;;;;-1.16;100.00;95646.00;5020619;28;20040;-71
2023/12/04 08:32:44;;;;;;;10.73;9.43;;;;;;;-1.10;100.00;95644.88;5029614;28;20053;-70
2023/12/04 08:35:10;;;;;;;12.00;9.48;;;;;;;-1.07;100.00;95651.63;5021042;28;20095;-70
2023/12/04 08:37:35;;;;;;;15.13;12.98;;;;;;;-1.07;100.00;95652.50;5025842;28;20026;-71
2023/12/04 08:40:01;;;;;;;18.25;14.90;;;;;;;-1.04;100.00;95647.16;5021009;28;20041;-71
2023/12/04 08:42:26;;;;;;;27.17;19.35;;;;;;;-0.93;100.00;95654.41;5027940;28;20637;-71
2023/12/04 08:44:51;;;;;;;23.55;16.77;;;;;;;-0.88;100.00;95649.88;5026841;28;20068;-71
2023/12/04 08:47:17;;;;;;;29.25;20.17;;;;;;;-0.90;100.00;95649.09;5019894;28;20057;-71
2023/12/04 08:49:43;;;;;;;24.52;15.98;;;;;;;-0.82;100.00;95642.72;5026292;28;20104;-70
2023/12/04 08:52:08;;;;;;;40.30;22.02;;;;;;;-0.70;100.00;95639.56;5021700;28;20140;-71
2023/12/04 08:54:34;;;;;;;34.80;23.05;;;;;;;-0.78;100.00;95647.69;5020197;28;20028;-72
2023/12/04 08:56:59;;;;;;;50.65;28.15;;;;;;;-0.77;100.00;95644.19;5031504;28;20037;-72
2023/12/04 08:59:25;;;;;;;35.45;21.70;;;;;;;-0.82;100.00;95648.75;5018845;28;20025;-72
2023/12/04 09:01:50;;;;;;;46.03;27.00;;;;;;;-0.79;100.00;95656.34;5027884;28;20018;-71
2023/12/04 09:04:15;;;;;;;49.92;33.63;;;;;;;-0.81;100.00;95659.91;5025688;28;20021;-71
2023/12/04 09:06:41;;;;;;;26.75;20.10;;;;;;;-0.84;100.00;95673.84;5030411;28;20013;-72
2023/12/04 09:09:06;;;;;;;26.48;16.05;;;;;;;-0.78;100.00;95665.78;5026554;28;20521;-72
2023/12/04 09:11:31;;;;;;;27.73;19.45;;;;;;;-0.72;100.00;95667.25;5030309;28;20029;-71
2023/12/04 09:13:57;;;;;;;22.92;17.35;;;;;;;-0.66;100.00;95666.94;5028718;28;20022;-72
2023/12/04 09:16:23;;;;;;;22.17;17.92;;;;;;;-0.50;100.00;95673.97;5027740;28;20104;-71
2023/12/04 09:18:48;;;;;;;13.27;11.88;;;;;;;-0.53;100.00;95667.19;5030671;28;20043;-71
2023/12/04 09:21:14;;;;;;;15.93;13.27;;;;;;;-0.52;100.00;95668.84;5027152;28;21221;-72
2023/12/04 09:23:39;;;;;;;18.45;12.20;;;;;;;-0.61;100.00;95664.13;5023965;28;20064;-71
2023/12/04 09:26:05;;;;;;;15.65;12.85;;;;;;;-0.54;100.00;95656.94;5029592;28;20021;-71
2023/12/04 09:28:30;;;;;;;17.48;15.40;;;;;;;-0.59;100.00;95647.63;5046055;28;20049;-72
2023/12/04 09:30:56;;;;;;;15.20;12.88;;;;;;;-0.57;100.00;95644.97;5031043;28;20025;-71
2023/12/04 09:33:21;;;;;;;15.25;13.70;;;;;;;-0.60;100.00;95645.94;5029477;28;20033;-71
2023/12/04 09:35:46;;;;;;;18.08;11.95;;;;;;;-0.59;100.00;95646.78;5020612;28;20037;-71
2023/12/04 09:38:12;;;;;;;14.38;12.02;;;;;;;-0.60;100.00;95645.94;5022258;28;20033;-71
2023/12/04 09:40:37;;;;;;;21.88;17.50;;;;;;;-0.60;100.00;95661.47;5028088;28;20048;-71
2023/12/04 09:43:05;;;;;;;15.77;14.15;;;;;;;-0.54;100.00;95650.00;5032294;28;20032;-71
2023/12/04 09:45:32;;;;;;;36.80;28.70;;;;;;;-0.46;100.00;95658.19;5018093;28;20029;-71
2023/12/04 09:47:58;;;;;;;17.95;13.10;;;;;;;-0.45;100.00;95656.47;5026215;28;20100;-71
2023/12/04 09:50:24;;;;;;;15.68;13.63;;;;;;;-0.43;100.00;95654.63;5029961;28;20049;-71
2023/12/04 09:52:50;;;;;;;16.73;13.90;;;;;;;-0.36;100.00;95666.34;5037111;28;20050;-70
2023/12/04 09:55:16;;;;;;;14.10;12.55;;;;;;;-0.27;100.00;95664.22;5030888;28;20032;-70
2023/12/04 09:57:44;;;;;;;22.20;14.82;;;;;;;-0.41;100.00;95659.75;5024548;28;20022;-71
2023/12/04 10:00:11;;;;;;;11.50;10.30;;;;;;;-0.27;100.00;95662.47;5025720;28;20149;-70
2023/12/04 10:02:36;;;;;;;13.52;12.07;;;;;;;-0.32;100.00;95662.72;5025919;28;20029;-70
2023/12/04 10:05:04;;;;;;;12.57;10.23;;;;;;;-0.38;100.00;95660.41;5024609;28;20033;-70
2023/12/04 10:07:30;;;;;;;16.88;13.98;;;;;;;-0.13;100.00;95658.38;5025135;28;20490;-70
2023/12/04 10:09:55;;;;;;;17.60;14.57;;;;;;;-0.24;100.00;95659.72;5031794;28;20091;-70
2023/12/04 10:12:21;;;;;;;18.85;14.52;;;;;;;-0.20;100.00;95663.84;5030660;28;20033;-70
2023/12/04 10:15:09;;;;;;;17.52;14.50;;;;;;;-0.25;100.00;95667.56;5017884;28;20022;-70
2023/12/04 10:17:39;;;;;;;23.88;20.05;;;;;;;-0.18;100.00;95664.63;5032832;28;20061;-70
2023/12/04 10:20:12;;;;;;;21.13;15.57;;;;;;;-0.24;100.00;95656.31;5018502;28;20104;-70
2023/12/04 10:23:01;;;;;;;16.70;14.80;;;;;;;-0.23;100.00;95658.00;5031293;28;20053;-69
2023/12/04 10:25:29;;;;;;;17.67;15.57;;;;;;;-0.13;100.00;95653.19;5023851;28;20031;-68
2023/12/04 10:28:15;;;;;;;17.23;15.43;;;;;;;-0.15;100.00;95653.25;5025613;28;20025;-70
2023/12/04 10:30:41;;;;;;;21.58;16.23;;;;;;;-0.13;100.00;95645.41;5031843;28;20089;-69
2023/12/04 10:33:07;;;;;;;16.45;13.57;;;;;;;-0.09;100.00;95637.44;5024169;28;20505;-71
2023/12/04 10:35:38;;;;;;;41.00;24.88;;;;;;;-0.05;100.00;95631.19;5031803;28;20418;-70
2023/12/04 10:38:05;;;;;;;44.90;24.42;;;;;;;-0.07;100.00;95621.81;5028671;28;20152;-69
2023/12/04 10:40:32;;;;;;;33.90;21.02;;;;;;;-0.03;100.00;95615.56;5029393;28;20108;-69
2023/12/04 10:43:16;;;;;;;15.90;12.38;;;;;;;0.06;100.00;95612.50;5027636;28;20026;-70
2023/12/04 10:45:43;;;;;;;14.90;11.05;;;;;;;0.11;100.00;95604.47;5019707;28;20112;-70
2023/12/04 10:48:10;;;;;;;14.98;12.38;;;;;;;0.07;100.00;95602.97;5033530;28;20520;-69
2023/12/04 10:50:41;;;;;;;15.93;13.65;;;;;;;0.14;100.00;95601.75;5034774;28;20014;-69
2023/12/04 10:53:07;;;;;;;16.92;15.05;;;;;;;0.08;100.00;95595.13;5032558;28;20046;-70
2023/12/04 10:55:33;;;;;;;16.83;15.07;;;;;;;0.03;100.00;95598.88;5018441;28;20029;-70
2023/12/04 10:58:09;;;;;;;19.90;15.50;;;;;;;0.06;100.00;95598.72;5017691;28;20026;-69
2023/12/04 11:00:37;;;;;;;32.72;24.85;;;;;;;0.14;100.00;95591.41;5017621;28;20054;-70
2023/12/04 11:03:08;;;;;;;99.72;59.50;;;;;;;0.05;100.00;95594.47;5017607;28;20024;-70
2023/12/04 11:05:40;;;;;;;39.97;29.00;;;;;;;0.02;100.00;95594.63;5017428;28;20025;-69
2023/12/04 11:08:08;;;;;;;22.10;19.02;;;;;;;-0.03;100.00;95587.09;5017716;28;20049;-70